sensor_id;sensor_type;location;lat;lon;timestamp;P1;durP1;ratioP1;P2;durP2;ratioP2
4812;SDS011;2420;51.202;8.698;2023-01-15T00:01:01;0.80;;;0.80;;
4812;SDS011;2420;51.202;8.698;2023-01-15T00:03:29;0.93;;;0.80;;
4812;SDS011;2420;51.202;8.698;2023-01-15T00:05:55;1.05;;;0.80;;
4812;SDS011;2420;51.202;8.698;2023-01-15T00:08:21;0.80;;;0.80;;
4812;SDS011;2420;51.202;8.698;2023-01-15T00:10:46;1.30;;;0.80;;
4812;SDS011;2420;51.202;8.698;2023-01-15T00:13:12;2.08;;;0.80;;
4812;SDS011;2420;51.202;8.698;2023-01-15T00:15:37;0.80;;;0.80;;
4812;SDS011;2420;51.202;8.698;2023-01-15T00:18:03;1.10;;;0.80;;
4812;SDS011;2420;51.202;8.698;2023-01-15T00:20:29;0.90;;;0.80;;
4812;SDS011;2420;51.202;8.698;2023-01-15T00:22:54;0.90;;;0.90;;
4812;SDS011;2420;51.202;8.698;2023-01-15T00:25:20;0.80;;;0.80;;
4812;SDS011;2420;51.202;8.698;2023-01-15T00:28:04;0.95;;;0.80;;
4812;SDS011;2420;51.202;8.698;2023-01-15T00:30:30;0.90;;;0.90;;
4812;SDS011;2420;51.202;8.698;2023-01-15T00:32:57;1.15;;;0.90;;
4812;SDS011;2420;51.202;8.698;2023-01-15T00:35:23;3.50;;;0.82;;
4812;SDS011;2420;51.202;8.698;2023-01-15T00:37:49;0.80;;;0.80;;
4812;SDS011;2420;51.202;8.698;2023-01-15T00:40:16;0.93;;;0.90;;
4812;SDS011;2420;51.202;8.698;2023-01-15T00:42:43;1.15;;;1.00;;
4812;SDS011;2420;51.202;8.698;2023-01-15T00:45:09;0.77;;;0.77;;
4812;SDS011;2420;51.202;8.698;2023-01-15T00:47:39;0.70;;;0.70;;
4812;SDS011;2420;51.202;8.698;2023-01-15T00:50:07;0.60;;;0.60;;
4812;SDS011;2420;51.202;8.698;2023-01-15T00:52:35;0.73;;;0.70;;
4812;SDS011;2420;51.202;8.698;2023-01-15T00:55:01;0.60;;;0.60;;
4812;SDS011;2420;51.202;8.698;2023-01-15T00:57:26;0.70;;;0.70;;
4812;SDS011;2420;51.202;8.698;2023-01-15T00:59:52;0.98;;;0.80;;
4812;SDS011;2420;51.202;8.698;2023-01-15T01:02:18;0.68;;;0.63;;
4812;SDS011;2420;51.202;8.698;2023-01-15T01:04:43;0.70;;;0.70;;
4812;SDS011;2420;51.202;8.698;2023-01-15T01:07:09;0.90;;;0.73;;
4812;SDS011;2420;51.202;8.698;2023-01-15T01:09:34;0.55;;;0.55;;
4812;SDS011;2420;51.202;8.698;2023-01-15T01:12:00;0.75;;;0.75;;
4812;SDS011;2420;51.202;8.698;2023-01-15T01:14:26;0.75;;;0.75;;
4812;SDS011;2420;51.202;8.698;2023-01-15T01:16:52;1.95;;;0.80;;
4812;SDS011;2420;51.202;8.698;2023-01-15T01:19:18;1.23;;;0.80;;
4812;SDS011;2420;51.202;8.698;2023-01-15T01:21:46;0.88;;;0.80;;
4812;SDS011;2420;51.202;8.698;2023-01-15T01:24:13;0.80;;;0.80;;
4812;SDS011;2420;51.202;8.698;2023-01-15T01:26:41;0.80;;;0.80;;
4812;SDS011;2420;51.202;8.698;2023-01-15T01:29:14;1.90;;;0.70;;
4812;SDS011;2420;51.202;8.698;2023-01-15T01:31:41;0.88;;;0.73;;
4812;SDS011;2420;51.202;8.698;2023-01-15T01:34:07;1.85;;;0.88;;
4812;SDS011;2420;51.202;8.698;2023-01-15T01:36:35;0.70;;;0.70;;
4812;SDS011;2420;51.202;8.698;2023-01-15T01:39:02;0.63;;;0.60;;
4812;SDS011;2420;51.202;8.698;2023-01-15T01:41:29;1.00;;;0.80;;
4812;SDS011;2420;51.202;8.698;2023-01-15T01:43:58;1.17;;;0.80;;
4812;SDS011;2420;51.202;8.698;2023-01-15T01:46:27;0.90;;;0.90;;
4812;SDS011;2420;51.202;8.698;2023-01-15T01:48:55;0.80;;;0.80;;
4812;SDS011;2420;51.202;8.698;2023-01-15T01:51:26;1.02;;;0.73;;
4812;SDS011;2420;51.202;8.698;2023-01-15T01:53:56;0.82;;;0.82;;
4812;SDS011;2420;51.202;8.698;2023-01-15T01:56:22;1.23;;;0.90;;
4812;SDS011;2420;51.202;8.698;2023-01-15T01:58:49;0.70;;;0.70;;
4812;SDS011;2420;51.202;8.698;2023-01-15T02:01:18;3.28;;;0.98;;
4812;SDS011;2420;51.202;8.698;2023-01-15T02:03:46;0.70;;;0.70;;
4812;SDS011;2420;51.202;8.698;2023-01-15T02:06:12;0.70;;;0.70;;
4812;SDS011;2420;51.202;8.698;2023-01-15T02:08:39;0.80;;;0.80;;
4812;SDS011;2420;51.202;8.698;2023-01-15T02:11:05;0.63;;;0.63;;
4812;SDS011;2420;51.202;8.698;2023-01-15T02:13:37;0.65;;;0.60;;
4812;SDS011;2420;51.202;8.698;2023-01-15T02:16:16;0.95;;;0.63;;
4812;SDS011;2420;51.202;8.698;2023-01-15T02:29:39;0.90;;;0.70;;
4812;SDS011;2420;51.202;8.698;2023-01-15T02:32:19;0.65;;;0.65;;
4812;SDS011;2420;51.202;8.698;2023-01-15T02:34:54;0.60;;;0.60;;
4812;SDS011;2420;51.202;8.698;2023-01-15T02:37:27;1.50;;;1.05;;
4812;SDS011;2420;51.202;8.698;2023-01-15T02:39:55;0.88;;;0.80;;
4812;SDS011;2420;51.202;8.698;2023-01-15T02:42:23;1.05;;;0.88;;
4812;SDS011;2420;51.202;8.698;2023-01-15T02:44:51;1.60;;;1.25;;
4812;SDS011;2420;51.202;8.698;2023-01-15T02:47:19;1.27;;;1.10;;
4812;SDS011;2420;51.202;8.698;2023-01-15T02:49:59;1.52;;;1.02;;
4812;SDS011;2420;51.202;8.698;2023-01-15T02:52:31;0.98;;;0.80;;
4812;SDS011;2420;51.202;8.698;2023-01-15T02:55:09;1.58;;;0.80;;
4812;SDS011;2420;51.202;8.698;2023-01-15T02:57:41;1.63;;;0.82;;
4812;SDS011;2420;51.202;8.698;2023-01-15T03:00:11;0.80;;;0.80;;
4812;SDS011;2420;51.202;8.698;2023-01-15T03:02:40;0.80;;;0.80;;
4812;SDS011;2420;51.202;8.698;2023-01-15T03:05:10;1.80;;;1.40;;
4812;SDS011;2420;51.202;8.698;2023-01-15T03:07:50;0.50;;;0.50;;
4812;SDS011;2420;51.202;8.698;2023-01-15T03:10:19;0.50;;;0.50;;
4812;SDS011;2420;51.202;8.698;2023-01-15T03:12:56;1.63;;;0.50;;
4812;SDS011;2420;51.202;8.698;2023-01-15T03:15:31;0.40;;;0.40;;
4812;SDS011;2420;51.202;8.698;2023-01-15T03:18:39;0.45;;;0.45;;
4812;SDS011;2420;51.202;8.698;2023-01-15T03:21:10;1.10;;;0.60;;
4812;SDS011;2420;51.202;8.698;2023-01-15T03:23:40;1.55;;;0.50;;
4812;SDS011;2420;51.202;8.698;2023-01-15T03:26:10;1.55;;;0.50;;
4812;SDS011;2420;51.202;8.698;2023-01-15T03:28:35;0.50;;;0.50;;
4812;SDS011;2420;51.202;8.698;2023-01-15T03:31:03;0.60;;;0.50;;
4812;SDS011;2420;51.202;8.698;2023-01-15T03:33:29;0.60;;;0.57;;
4812;SDS011;2420;51.202;8.698;2023-01-15T03:38:26;0.50;;;0.50;;
4812;SDS011;2420;51.202;8.698;2023-01-15T03:49:03;1.38;;;0.63;;
4812;SDS011;2420;51.202;8.698;2023-01-15T03:54:22;1.30;;;0.50;;
4812;SDS011;2420;51.202;8.698;2023-01-15T03:56:57;0.90;;;0.70;;
4812;SDS011;2420;51.202;8.698;2023-01-15T03:59:36;1.23;;;0.70;;
4812;SDS011;2420;51.202;8.698;2023-01-15T04:02:08;0.50;;;0.50;;
4812;SDS011;2420;51.202;8.698;2023-01-15T04:04:38;0.68;;;0.68;;
4812;SDS011;2420;51.202;8.698;2023-01-15T04:07:07;0.70;;;0.70;;
4812;SDS011;2420;51.202;8.698;2023-01-15T04:09:37;2.00;;;0.70;;
4812;SDS011;2420;51.202;8.698;2023-01-15T04:12:03;1.58;;;0.63;;
4812;SDS011;2420;51.202;8.698;2023-01-15T04:14:29;1.38;;;0.73;;
4812;SDS011;2420;51.202;8.698;2023-01-15T04:16:55;0.88;;;0.68;;
4812;SDS011;2420;51.202;8.698;2023-01-15T04:19:20;0.63;;;0.60;;
4812;SDS011;2420;51.202;8.698;2023-01-15T04:21:46;0.73;;;0.60;;
4812;SDS011;2420;51.202;8.698;2023-01-15T04:24:12;1.00;;;0.60;;
4812;SDS011;2420;51.202;8.698;2023-01-15T04:26:37;2.25;;;0.65;;
4812;SDS011;2420;51.202;8.698;2023-01-15T04:29:03;2.25;;;0.82;;
4812;SDS011;2420;51.202;8.698;2023-01-15T04:31:28;0.88;;;0.70;;
4812;SDS011;2420;51.202;8.698;2023-01-15T04:33:56;2.53;;;1.20;;
4812;SDS011;2420;51.202;8.698;2023-01-15T04:36:22;1.60;;;1.00;;
4812;SDS011;2420;51.202;8.698;2023-01-15T04:38:47;0.85;;;0.70;;
4812;SDS011;2420;51.202;8.698;2023-01-15T04:41:13;1.55;;;0.93;;
4812;SDS011;2420;51.202;8.698;2023-01-15T04:43:57;1.48;;;0.90;;
4812;SDS011;2420;51.202;8.698;2023-01-15T04:46:32;0.70;;;0.60;;
4812;SDS011;2420;51.202;8.698;2023-01-15T04:48:59;1.17;;;0.70;;
4812;SDS011;2420;51.202;8.698;2023-01-15T04:51:25;0.98;;;0.70;;
4812;SDS011;2420;51.202;8.698;2023-01-15T04:53:50;0.80;;;0.70;;
4812;SDS011;2420;51.202;8.698;2023-01-15T04:56:16;0.98;;;0.70;;
4812;SDS011;2420;51.202;8.698;2023-01-15T04:58:42;0.77;;;0.70;;
4812;SDS011;2420;51.202;8.698;2023-01-15T05:01:14;3.35;;;0.80;;
4812;SDS011;2420;51.202;8.698;2023-01-15T05:03:42;0.82;;;0.73;;
4812;SDS011;2420;51.202;8.698;2023-01-15T05:06:08;1.40;;;0.60;;
4812;SDS011;2420;51.202;8.698;2023-01-15T05:08:34;0.95;;;0.68;;
4812;SDS011;2420;51.202;8.698;2023-01-15T05:11:01;0.60;;;0.60;;
4812;SDS011;2420;51.202;8.698;2023-01-15T05:13:31;2.35;;;0.85;;
4812;SDS011;2420;51.202;8.698;2023-01-15T05:16:07;2.67;;;0.70;;
4812;SDS011;2420;51.202;8.698;2023-01-15T05:18:32;1.35;;;0.90;;
4812;SDS011;2420;51.202;8.698;2023-01-15T05:20:58;0.57;;;0.57;;
4812;SDS011;2420;51.202;8.698;2023-01-15T05:23:24;0.63;;;0.63;;
4812;SDS011;2420;51.202;8.698;2023-01-15T05:25:49;1.38;;;0.60;;
4812;SDS011;2420;51.202;8.698;2023-01-15T05:28:15;0.70;;;0.60;;
4812;SDS011;2420;51.202;8.698;2023-01-15T05:30:40;0.77;;;0.63;;
4812;SDS011;2420;51.202;8.698;2023-01-15T05:33:06;2.00;;;0.80;;
4812;SDS011;2420;51.202;8.698;2023-01-15T05:35:31;0.60;;;0.60;;
4812;SDS011;2420;51.202;8.698;2023-01-15T05:37:57;1.63;;;0.70;;
4812;SDS011;2420;51.202;8.698;2023-01-15T05:40:22;1.33;;;0.70;;
4812;SDS011;2420;51.202;8.698;2023-01-15T05:42:48;1.02;;;0.93;;
4812;SDS011;2420;51.202;8.698;2023-01-15T05:45:13;1.35;;;0.88;;
4812;SDS011;2420;51.202;8.698;2023-01-15T05:47:39;0.93;;;0.70;;
4812;SDS011;2420;51.202;8.698;2023-01-15T05:50:04;0.55;;;0.50;;
4812;SDS011;2420;51.202;8.698;2023-01-15T05:52:30;1.58;;;0.60;;
4812;SDS011;2420;51.202;8.698;2023-01-15T05:54:55;0.80;;;0.70;;
4812;SDS011;2420;51.202;8.698;2023-01-15T05:57:21;1.75;;;0.70;;
4812;SDS011;2420;51.202;8.698;2023-01-15T05:59:46;1.00;;;0.60;;
4812;SDS011;2420;51.202;8.698;2023-01-15T06:02:14;2.55;;;0.60;;
4812;SDS011;2420;51.202;8.698;2023-01-15T06:04:40;1.27;;;0.63;;
4812;SDS011;2420;51.202;8.698;2023-01-15T06:07:05;1.98;;;0.80;;
4812;SDS011;2420;51.202;8.698;2023-01-15T06:09:31;1.92;;;0.80;;
4812;SDS011;2420;51.202;8.698;2023-01-15T06:11:56;0.60;;;0.60;;
4812;SDS011;2420;51.202;8.698;2023-01-15T06:14:22;1.17;;;0.80;;
4812;SDS011;2420;51.202;8.698;2023-01-15T06:16:48;0.98;;;0.70;;
4812;SDS011;2420;51.202;8.698;2023-01-15T06:19:14;1.20;;;0.73;;
4812;SDS011;2420;51.202;8.698;2023-01-15T06:21:39;6.93;;;1.17;;
4812;SDS011;2420;51.202;8.698;2023-01-15T06:24:06;1.23;;;0.82;;
4812;SDS011;2420;51.202;8.698;2023-01-15T06:26:32;1.48;;;0.73;;
4812;SDS011;2420;51.202;8.698;2023-01-15T06:28:57;3.42;;;1.00;;
4812;SDS011;2420;51.202;8.698;2023-01-15T06:31:23;1.05;;;0.80;;
4812;SDS011;2420;51.202;8.698;2023-01-15T06:33:52;0.93;;;0.82;;
4812;SDS011;2420;51.202;8.698;2023-01-15T06:36:19;2.38;;;0.90;;
4812;SDS011;2420;51.202;8.698;2023-01-15T06:38:46;1.27;;;0.95;;
4812;SDS011;2420;51.202;8.698;2023-01-15T06:41:19;2.00;;;1.10;;
4812;SDS011;2420;51.202;8.698;2023-01-15T06:44:05;5.25;;;1.30;;
4812;SDS011;2420;51.202;8.698;2023-01-15T06:46:53;2.60;;;1.25;;
4812;SDS011;2420;51.202;8.698;2023-01-15T06:49:37;2.17;;;1.10;;
4812;SDS011;2420;51.202;8.698;2023-01-15T06:52:03;1.25;;;0.93;;
4812;SDS011;2420;51.202;8.698;2023-01-15T06:54:29;1.20;;;1.02;;
4812;SDS011;2420;51.202;8.698;2023-01-15T06:56:55;4.10;;;1.05;;
4812;SDS011;2420;51.202;8.698;2023-01-15T06:59:21;2.08;;;0.90;;
4812;SDS011;2420;51.202;8.698;2023-01-15T07:01:46;2.60;;;1.38;;
4812;SDS011;2420;51.202;8.698;2023-01-15T07:04:12;2.55;;;1.42;;
4812;SDS011;2420;51.202;8.698;2023-01-15T07:06:38;3.00;;;0.90;;
4812;SDS011;2420;51.202;8.698;2023-01-15T07:09:04;2.63;;;1.02;;
4812;SDS011;2420;51.202;8.698;2023-01-15T07:11:29;2.00;;;1.10;;
4812;SDS011;2420;51.202;8.698;2023-01-15T07:13:55;3.78;;;1.80;;
4812;SDS011;2420;51.202;8.698;2023-01-15T07:16:35;3.25;;;1.30;;
4812;SDS011;2420;51.202;8.698;2023-01-15T07:19:01;2.00;;;1.02;;
4812;SDS011;2420;51.202;8.698;2023-01-15T07:21:28;1.45;;;0.80;;
4812;SDS011;2420;51.202;8.698;2023-01-15T07:23:54;2.50;;;1.20;;
4812;SDS011;2420;51.202;8.698;2023-01-15T07:26:23;1.25;;;1.00;;
4812;SDS011;2420;51.202;8.698;2023-01-15T07:28:48;3.15;;;0.95;;
4812;SDS011;2420;51.202;8.698;2023-01-15T07:31:14;1.50;;;0.98;;
4812;SDS011;2420;51.202;8.698;2023-01-15T07:33:39;3.33;;;1.20;;
4812;SDS011;2420;51.202;8.698;2023-01-15T07:36:05;1.85;;;1.00;;
4812;SDS011;2420;51.202;8.698;2023-01-15T07:38:31;4.38;;;2.10;;
4812;SDS011;2420;51.202;8.698;2023-01-15T07:40:57;14.95;;;4.82;;
4812;SDS011;2420;51.202;8.698;2023-01-15T07:43:41;7.35;;;2.70;;
4812;SDS011;2420;51.202;8.698;2023-01-15T07:46:26;12.52;;;2.58;;
4812;SDS011;2420;51.202;8.698;2023-01-15T07:49:10;12.40;;;3.10;;
4812;SDS011;2420;51.202;8.698;2023-01-15T07:51:55;15.43;;;5.40;;
4812;SDS011;2420;51.202;8.698;2023-01-15T07:54:21;17.10;;;5.53;;
4812;SDS011;2420;51.202;8.698;2023-01-15T07:56:47;5.38;;;2.08;;
4812;SDS011;2420;51.202;8.698;2023-01-15T07:59:13;11.70;;;4.85;;
4812;SDS011;2420;51.202;8.698;2023-01-15T08:01:39;5.05;;;1.85;;
4812;SDS011;2420;51.202;8.698;2023-01-15T08:04:04;1.85;;;0.93;;
4812;SDS011;2420;51.202;8.698;2023-01-15T08:06:30;3.13;;;1.20;;
4812;SDS011;2420;51.202;8.698;2023-01-15T08:08:55;12.70;;;4.53;;
4812;SDS011;2420;51.202;8.698;2023-01-15T08:11:21;4.38;;;0.98;;
4812;SDS011;2420;51.202;8.698;2023-01-15T08:14:05;3.65;;;1.50;;
4812;SDS011;2420;51.202;8.698;2023-01-15T08:16:49;3.22;;;1.70;;
4812;SDS011;2420;51.202;8.698;2023-01-15T08:19:14;6.80;;;2.20;;
4812;SDS011;2420;51.202;8.698;2023-01-15T08:21:40;2.20;;;1.50;;
4812;SDS011;2420;51.202;8.698;2023-01-15T08:24:06;2.72;;;1.70;;
4812;SDS011;2420;51.202;8.698;2023-01-15T08:26:31;2.95;;;1.60;;
4812;SDS011;2420;51.202;8.698;2023-01-15T08:28:57;2.35;;;1.13;;
4812;SDS011;2420;51.202;8.698;2023-01-15T08:31:23;5.57;;;1.75;;
4812;SDS011;2420;51.202;8.698;2023-01-15T08:33:48;5.88;;;1.52;;
4812;SDS011;2420;51.202;8.698;2023-01-15T08:36:14;3.85;;;1.70;;
4812;SDS011;2420;51.202;8.698;2023-01-15T08:38:41;6.40;;;3.05;;
4812;SDS011;2420;51.202;8.698;2023-01-15T08:41:07;10.82;;;5.25;;
4812;SDS011;2420;51.202;8.698;2023-01-15T08:43:33;10.15;;;4.30;;
4812;SDS011;2420;51.202;8.698;2023-01-15T08:45:59;8.27;;;3.85;;
4812;SDS011;2420;51.202;8.698;2023-01-15T08:48:27;11.52;;;6.43;;
4812;SDS011;2420;51.202;8.698;2023-01-15T08:50:53;11.30;;;4.85;;
4812;SDS011;2420;51.202;8.698;2023-01-15T08:53:19;6.45;;;2.70;;
4812;SDS011;2420;51.202;8.698;2023-01-15T08:55:46;8.77;;;4.03;;
4812;SDS011;2420;51.202;8.698;2023-01-15T08:58:12;7.05;;;3.50;;
4812;SDS011;2420;51.202;8.698;2023-01-15T09:00:39;10.40;;;3.80;;
4812;SDS011;2420;51.202;8.698;2023-01-15T09:03:05;7.38;;;3.58;;
4812;SDS011;2420;51.202;8.698;2023-01-15T09:05:30;5.45;;;2.80;;
4812;SDS011;2420;51.202;8.698;2023-01-15T09:07:56;7.82;;;3.10;;
4812;SDS011;2420;51.202;8.698;2023-01-15T09:10:21;4.55;;;1.92;;
4812;SDS011;2420;51.202;8.698;2023-01-15T09:12:47;2.15;;;1.50;;
4812;SDS011;2420;51.202;8.698;2023-01-15T09:15:15;2.10;;;1.17;;
4812;SDS011;2420;51.202;8.698;2023-01-15T09:17:41;3.72;;;1.50;;
4812;SDS011;2420;51.202;8.698;2023-01-15T09:20:08;2.58;;;1.20;;
4812;SDS011;2420;51.202;8.698;2023-01-15T09:22:35;3.30;;;1.50;;
4812;SDS011;2420;51.202;8.698;2023-01-15T09:25:01;5.90;;;1.42;;
4812;SDS011;2420;51.202;8.698;2023-01-15T09:27:27;1.08;;;0.90;;
4812;SDS011;2420;51.202;8.698;2023-01-15T09:29:53;1.73;;;1.48;;
4812;SDS011;2420;51.202;8.698;2023-01-15T09:32:19;5.47;;;1.20;;
4812;SDS011;2420;51.202;8.698;2023-01-15T09:34:45;3.58;;;1.10;;
4812;SDS011;2420;51.202;8.698;2023-01-15T09:37:10;2.55;;;1.60;;
4812;SDS011;2420;51.202;8.698;2023-01-15T09:39:36;3.83;;;1.58;;
4812;SDS011;2420;51.202;8.698;2023-01-15T09:50:33;3.00;;;0.90;;
4812;SDS011;2420;51.202;8.698;2023-01-15T09:56:22;1.65;;;0.93;;
4812;SDS011;2420;51.202;8.698;2023-01-15T09:58:52;0.90;;;0.80;;
4812;SDS011;2420;51.202;8.698;2023-01-15T10:01:23;1.92;;;0.80;;
4812;SDS011;2420;51.202;8.698;2023-01-15T10:03:53;2.47;;;1.60;;
4812;SDS011;2420;51.202;8.698;2023-01-15T10:09:08;1.77;;;1.00;;
4812;SDS011;2420;51.202;8.698;2023-01-15T10:11:43;1.30;;;0.75;;
4812;SDS011;2420;51.202;8.698;2023-01-15T10:14:41;1.30;;;0.80;;
4812;SDS011;2420;51.202;8.698;2023-01-15T10:17:47;1.48;;;0.70;;
4812;SDS011;2420;51.202;8.698;2023-01-15T10:20:15;1.50;;;0.98;;
4812;SDS011;2420;51.202;8.698;2023-01-15T10:25:49;3.40;;;0.93;;
4812;SDS011;2420;51.202;8.698;2023-01-15T10:28:21;5.68;;;2.55;;
4812;SDS011;2420;51.202;8.698;2023-01-15T10:30:53;2.85;;;1.20;;
4812;SDS011;2420;51.202;8.698;2023-01-15T10:35:59;1.65;;;1.10;;
4812;SDS011;2420;51.202;8.698;2023-01-15T10:38:35;2.15;;;1.15;;
4812;SDS011;2420;51.202;8.698;2023-01-15T10:41:13;2.97;;;1.00;;
4812;SDS011;2420;51.202;8.698;2023-01-15T10:47:10;2.25;;;0.80;;
4812;SDS011;2420;51.202;8.698;2023-01-15T10:49:39;3.08;;;1.02;;
4812;SDS011;2420;51.202;8.698;2023-01-15T10:52:07;6.03;;;3.17;;
4812;SDS011;2420;51.202;8.698;2023-01-15T10:54:52;3.80;;;1.77;;
4812;SDS011;2420;51.202;8.698;2023-01-15T11:00:31;2.80;;;1.33;;
4812;SDS011;2420;51.202;8.698;2023-01-15T11:03:11;4.75;;;1.60;;
4812;SDS011;2420;51.202;8.698;2023-01-15T11:05:42;5.82;;;2.05;;
4812;SDS011;2420;51.202;8.698;2023-01-15T11:08:13;4.75;;;1.65;;
4812;SDS011;2420;51.202;8.698;2023-01-15T11:10:46;4.78;;;1.90;;
4812;SDS011;2420;51.202;8.698;2023-01-15T11:13:19;4.60;;;1.70;;
4812;SDS011;2420;51.202;8.698;2023-01-15T11:16:12;3.15;;;1.90;;
4812;SDS011;2420;51.202;8.698;2023-01-15T11:19:22;5.00;;;2.65;;
4812;SDS011;2420;51.202;8.698;2023-01-15T11:22:04;3.35;;;1.60;;
4812;SDS011;2420;51.202;8.698;2023-01-15T11:24:52;6.32;;;2.28;;
4812;SDS011;2420;51.202;8.698;2023-01-15T11:27:26;6.45;;;2.33;;
4812;SDS011;2420;51.202;8.698;2023-01-15T11:29:55;4.03;;;1.58;;
4812;SDS011;2420;51.202;8.698;2023-01-15T11:32:29;6.82;;;1.80;;
4812;SDS011;2420;51.202;8.698;2023-01-15T11:35:00;3.80;;;1.40;;
4812;SDS011;2420;51.202;8.698;2023-01-15T11:37:28;5.22;;;1.50;;
4812;SDS011;2420;51.202;8.698;2023-01-15T11:39:57;4.10;;;2.00;;
4812;SDS011;2420;51.202;8.698;2023-01-15T11:42:36;3.35;;;1.15;;
4812;SDS011;2420;51.202;8.698;2023-01-15T11:45:21;4.78;;;1.50;;
4812;SDS011;2420;51.202;8.698;2023-01-15T11:48:14;3.00;;;1.10;;
4812;SDS011;2420;51.202;8.698;2023-01-15T11:51:02;2.15;;;1.20;;
4812;SDS011;2420;51.202;8.698;2023-01-15T11:53:33;4.22;;;1.40;;
4812;SDS011;2420;51.202;8.698;2023-01-15T11:56:07;5.10;;;1.50;;
4812;SDS011;2420;51.202;8.698;2023-01-15T11:58:40;1.67;;;1.00;;
4812;SDS011;2420;51.202;8.698;2023-01-15T12:01:22;2.40;;;1.05;;
4812;SDS011;2420;51.202;8.698;2023-01-15T12:03:54;5.03;;;1.50;;
4812;SDS011;2420;51.202;8.698;2023-01-15T12:06:21;4.72;;;2.00;;
4812;SDS011;2420;51.202;8.698;2023-01-15T12:09:33;11.05;;;3.42;;
4812;SDS011;2420;51.202;8.698;2023-01-15T12:14:56;3.10;;;1.35;;
4812;SDS011;2420;51.202;8.698;2023-01-15T12:20:36;3.70;;;1.95;;
4812;SDS011;2420;51.202;8.698;2023-01-15T12:29:03;6.55;;;1.17;;
4812;SDS011;2420;51.202;8.698;2023-01-15T12:31:39;4.95;;;1.65;;
4812;SDS011;2420;51.202;8.698;2023-01-15T12:36:45;6.55;;;1.65;;
4812;SDS011;2420;51.202;8.698;2023-01-15T12:39:17;4.28;;;1.50;;
4812;SDS011;2420;51.202;8.698;2023-01-15T12:41:48;3.00;;;1.60;;
4812;SDS011;2420;51.202;8.698;2023-01-15T12:44:42;3.78;;;1.80;;
4812;SDS011;2420;51.202;8.698;2023-01-15T12:47:33;6.45;;;2.30;;
4812;SDS011;2420;51.202;8.698;2023-01-15T12:59:13;4.75;;;1.40;;
4812;SDS011;2420;51.202;8.698;2023-01-15T13:01:57;7.22;;;2.42;;
4812;SDS011;2420;51.202;8.698;2023-01-15T13:04:49;4.45;;;1.40;;
4812;SDS011;2420;51.202;8.698;2023-01-15T13:07:17;4.20;;;1.20;;
4812;SDS011;2420;51.202;8.698;2023-01-15T13:12:32;3.17;;;1.60;;
4812;SDS011;2420;51.202;8.698;2023-01-15T13:14:58;4.07;;;1.05;;
4812;SDS011;2420;51.202;8.698;2023-01-15T13:23:04;1.52;;;1.00;;
4812;SDS011;2420;51.202;8.698;2023-01-15T13:33:53;3.90;;;1.42;;
4812;SDS011;2420;51.202;8.698;2023-01-15T13:36:40;3.22;;;1.20;;
4812;SDS011;2420;51.202;8.698;2023-01-15T13:39:11;4.10;;;1.13;;
4812;SDS011;2420;51.202;8.698;2023-01-15T13:41:46;3.78;;;1.38;;
4812;SDS011;2420;51.202;8.698;2023-01-15T13:44:35;4.57;;;1.65;;
4812;SDS011;2420;51.202;8.698;2023-01-15T13:47:10;5.88;;;1.48;;
4812;SDS011;2420;51.202;8.698;2023-01-15T13:49:49;4.68;;;1.48;;
4812;SDS011;2420;51.202;8.698;2023-01-15T13:52:25;4.40;;;1.58;;
4812;SDS011;2420;51.202;8.698;2023-01-15T13:54:56;6.00;;;1.65;;
4812;SDS011;2420;51.202;8.698;2023-01-15T13:57:31;4.90;;;1.42;;
4812;SDS011;2420;51.202;8.698;2023-01-15T13:59:58;3.92;;;1.42;;
4812;SDS011;2420;51.202;8.698;2023-01-15T14:02:25;4.57;;;1.50;;
4812;SDS011;2420;51.202;8.698;2023-01-15T14:04:53;2.65;;;1.40;;
4812;SDS011;2420;51.202;8.698;2023-01-15T14:07:20;3.03;;;1.40;;
4812;SDS011;2420;51.202;8.698;2023-01-15T14:10:34;1.63;;;1.00;;
4812;SDS011;2420;51.202;8.698;2023-01-15T14:32:28;4.82;;;1.70;;
4812;SDS011;2420;51.202;8.698;2023-01-15T14:34:56;3.28;;;1.60;;
4812;SDS011;2420;51.202;8.698;2023-01-15T14:37:25;4.22;;;1.30;;
4812;SDS011;2420;51.202;8.698;2023-01-15T14:39:56;4.18;;;1.50;;
4812;SDS011;2420;51.202;8.698;2023-01-15T14:42:25;3.65;;;1.45;;
4812;SDS011;2420;51.202;8.698;2023-01-15T14:45:16;5.10;;;1.60;;
4812;SDS011;2420;51.202;8.698;2023-01-15T14:47:56;4.25;;;1.70;;
4812;SDS011;2420;51.202;8.698;2023-01-15T14:50:34;4.80;;;1.60;;
4812;SDS011;2420;51.202;8.698;2023-01-15T14:55:55;4.50;;;1.20;;
4812;SDS011;2420;51.202;8.698;2023-01-15T15:06:44;7.05;;;1.42;;
4812;SDS011;2420;51.202;8.698;2023-01-15T15:09:10;4.88;;;1.48;;
4812;SDS011;2420;51.202;8.698;2023-01-15T15:11:40;3.50;;;1.75;;
4812;SDS011;2420;51.202;8.698;2023-01-15T15:14:29;4.53;;;1.80;;
4812;SDS011;2420;51.202;8.698;2023-01-15T15:16:57;6.75;;;2.60;;
4812;SDS011;2420;51.202;8.698;2023-01-15T15:19:26;3.65;;;1.40;;
4812;SDS011;2420;51.202;8.698;2023-01-15T15:21:58;6.78;;;1.48;;
4812;SDS011;2420;51.202;8.698;2023-01-15T15:24:32;2.53;;;1.50;;
4812;SDS011;2420;51.202;8.698;2023-01-15T15:29:46;4.28;;;2.72;;
4812;SDS011;2420;51.202;8.698;2023-01-15T15:32:16;6.07;;;2.70;;
4812;SDS011;2420;51.202;8.698;2023-01-15T15:34:45;4.35;;;2.03;;
4812;SDS011;2420;51.202;8.698;2023-01-15T15:37:16;4.13;;;2.22;;
4812;SDS011;2420;51.202;8.698;2023-01-15T15:45:54;6.40;;;1.95;;
4812;SDS011;2420;51.202;8.698;2023-01-15T15:48:39;5.03;;;2.47;;
4812;SDS011;2420;51.202;8.698;2023-01-15T15:59:27;8.25;;;2.47;;
4812;SDS011;2420;51.202;8.698;2023-01-15T16:02:05;5.53;;;2.33;;
4812;SDS011;2420;51.202;8.698;2023-01-15T16:04:46;13.55;;;4.53;;
4812;SDS011;2420;51.202;8.698;2023-01-15T16:07:26;7.72;;;2.47;;
4812;SDS011;2420;51.202;8.698;2023-01-15T16:10:14;3.03;;;1.50;;
4812;SDS011;2420;51.202;8.698;2023-01-15T16:12:47;3.25;;;1.90;;
4812;SDS011;2420;51.202;8.698;2023-01-15T16:15:17;4.10;;;1.90;;
4812;SDS011;2420;51.202;8.698;2023-01-15T16:17:45;7.85;;;1.67;;
4812;SDS011;2420;51.202;8.698;2023-01-15T16:20:12;5.20;;;1.73;;
4812;SDS011;2420;51.202;8.698;2023-01-15T16:22:59;6.03;;;2.60;;
4812;SDS011;2420;51.202;8.698;2023-01-15T16:25:34;4.72;;;1.80;;
4812;SDS011;2420;51.202;8.698;2023-01-15T16:28:05;4.38;;;1.45;;
4812;SDS011;2420;51.202;8.698;2023-01-15T16:30:46;5.15;;;1.83;;
4812;SDS011;2420;51.202;8.698;2023-01-15T16:33:22;5.55;;;1.75;;
4812;SDS011;2420;51.202;8.698;2023-01-15T16:35:54;5.38;;;1.92;;
4812;SDS011;2420;51.202;8.698;2023-01-15T16:38:21;4.50;;;1.67;;
4812;SDS011;2420;51.202;8.698;2023-01-15T16:40:47;4.82;;;2.20;;
4812;SDS011;2420;51.202;8.698;2023-01-15T16:43:14;11.90;;;3.72;;
4812;SDS011;2420;51.202;8.698;2023-01-15T16:48:34;7.68;;;3.22;;
4812;SDS011;2420;51.202;8.698;2023-01-15T16:53:47;8.40;;;2.30;;
4812;SDS011;2420;51.202;8.698;2023-01-15T16:59:04;7.43;;;2.75;;
4812;SDS011;2420;51.202;8.698;2023-01-15T17:01:54;3.92;;;1.65;;
4812;SDS011;2420;51.202;8.698;2023-01-15T17:04:41;6.90;;;2.40;;
4812;SDS011;2420;51.202;8.698;2023-01-15T17:09:46;7.22;;;2.17;;
4812;SDS011;2420;51.202;8.698;2023-01-15T17:12:17;7.55;;;3.20;;
4812;SDS011;2420;51.202;8.698;2023-01-15T17:14:50;2.97;;;1.73;;
4812;SDS011;2420;51.202;8.698;2023-01-15T17:17:23;2.70;;;1.50;;
4812;SDS011;2420;51.202;8.698;2023-01-15T17:19:52;4.05;;;1.50;;
4812;SDS011;2420;51.202;8.698;2023-01-15T17:22:29;6.80;;;2.00;;
4812;SDS011;2420;51.202;8.698;2023-01-15T17:24:57;6.40;;;1.95;;
4812;SDS011;2420;51.202;8.698;2023-01-15T17:27:24;4.20;;;1.95;;
4812;SDS011;2420;51.202;8.698;2023-01-15T17:29:51;2.92;;;1.50;;
4812;SDS011;2420;51.202;8.698;2023-01-15T17:32:19;3.67;;;1.20;;
4812;SDS011;2420;51.202;8.698;2023-01-15T17:34:53;3.72;;;1.48;;
4812;SDS011;2420;51.202;8.698;2023-01-15T17:37:19;3.22;;;1.30;;
4812;SDS011;2420;51.202;8.698;2023-01-15T17:39:45;3.45;;;1.73;;
4812;SDS011;2420;51.202;8.698;2023-01-15T17:42:14;4.47;;;1.60;;
4812;SDS011;2420;51.202;8.698;2023-01-15T17:44:41;2.38;;;1.40;;
4812;SDS011;2420;51.202;8.698;2023-01-15T17:47:07;3.47;;;2.10;;
4812;SDS011;2420;51.202;8.698;2023-01-15T17:49:33;3.78;;;1.85;;
4812;SDS011;2420;51.202;8.698;2023-01-15T17:51:59;2.70;;;1.73;;
4812;SDS011;2420;51.202;8.698;2023-01-15T17:54:26;2.95;;;1.80;;
4812;SDS011;2420;51.202;8.698;2023-01-15T17:57:10;5.85;;;1.83;;
4812;SDS011;2420;51.202;8.698;2023-01-15T17:59:54;6.15;;;3.88;;
4812;SDS011;2420;51.202;8.698;2023-01-15T18:02:38;7.35;;;2.38;;
4812;SDS011;2420;51.202;8.698;2023-01-15T18:05:23;5.85;;;2.17;;
4812;SDS011;2420;51.202;8.698;2023-01-15T18:07:54;7.18;;;2.50;;